Time;durP1;ratioP1;P1;durP2;ratioP2;P2;SDS_P1;SDS_P2;PMS_P1;PMS_P2;Temp;Humidity;BMP_temperature;BMP_pressure;BME280_temperature;BME280_humidity;BME280_pressure;Samples;Min_cycle;Max_cycle;Signal;HPM_P1;HPM_P2
2022/11/30 00:00:02;;;;;;;0.00;0.00;;;;;;;;;;5015785;28;20184;-81
2022/11/30 00:02:33;;;;;;;0.00;0.00;;;;;;;;;;5038704;28;20185;-81
2022/11/30 00:05:03;;;;;;;0.00;0.00;;;;;;;;;;5038177;28;20203;-81
2022/11/30 00:07:35;;;;;;;0.00;0.00;;;;;;;;;;5036629;28;20205;-81
2022/11/30 00:10:05;;;;;;;0.00;0.00;;;;;;;;;;5029926;28;20195;-81
2022/11/30 00:12:35;;;;;;;0.00;0.00;;;;;;;;;;5038416;28;20187;-81
2022/11/30 00:15:07;;;;;;;0.00;0.00;;;;;;;;;;5037985;28;20204;-81
2022/11/30 00:17:37;;;;;;;0.00;0.00;;;;;;;;;;5020995;28;20229;-81
2022/11/30 00:20:09;;;;;;;0.00;0.00;;;;;;;;;;5038709;28;20204;-81
2022/11/30 00:22:38;;;;;;;0.00;0.00;;;;;;;;;;5019735;28;20185;-81
2022/11/30 00:25:09;;;;;;;0.00;0.00;;;;;;;;;;5031644;28;20219;-82
2022/11/30 00:27:39;;;;;;;0.00;0.00;;;;;;;;;;5038663;28;20199;-81
2022/11/30 00:30:10;;;;;;;0.00;0.00;;;;;;;;;;5041883;28;20345;-82
2022/11/30 00:32:41;;;;;;;0.00;0.00;;;;;;;;;;5018562;28;20189;-81
2022/11/30 00:35:10;;;;;;;0.00;0.00;;;;;;;;;;5034911;28;20223;-81
2022/11/30 00:37:39;;;;;;;0.00;0.00;;;;;;;;;;5038059;28;20192;-80
2022/11/30 00:40:09;;;;;;;0.00;0.00;;;;;;;;;;5037606;28;20215;-81
2022/11/30 00:42:45;;;;;;;0.00;0.00;;;;;;;;;;5038361;28;20200;-81
2022/11/30 00:45:18;;;;;;;0.00;0.00;;;;;;;;;;5037975;28;20204;-81
2022/11/30 00:47:49;;;;;;;0.00;0.00;;;;;;;;;;5038173;28;20200;-81
2022/11/30 00:50:19;;;;;;;0.00;0.00;;;;;;;;;;5030259;28;20191;-81
2022/11/30 00:52:56;;;;;;;0.00;0.00;;;;;;;;;;5030701;28;20188;-81
2022/11/30 00:55:26;;;;;;;0.00;0.00;;;;;;;;;;5053844;28;20203;-80
2022/11/30 00:57:59;;;;;;;0.00;0.00;;;;;;;;;;5038568;28;20213;-81
2022/11/30 01:00:32;;;;;;;0.00;0.00;;;;;;;;;;5037697;28;20184;-81
2022/11/30 01:03:06;;;;;;;0.00;0.00;;;;;;;;;;5037780;28;20208;-81
2022/11/30 01:08:32;;;;;;;0.00;0.00;;;;;;;;;;5037632;28;20192;-81
2022/11/30 01:11:09;;;;;;;0.00;0.00;;;;;;;;;;5038314;28;20184;-81
2022/11/30 01:13:40;;;;;;;0.00;0.00;;;;;;;;;;5037603;28;20287;-80
2022/11/30 01:16:20;;;;;;;0.00;0.00;;;;;;;;;;5034143;28;20184;-82
2022/11/30 06:49:29;;;;;;;0.00;0.00;;;;;;;;;;5055451;28;20211;-79
2022/11/30 06:52:01;;;;;;;0.00;0.00;;;;;;;;;;5056059;28;20210;-80
2022/11/30 06:54:29;;;;;;;0.00;0.00;;;;;;;;;;5043846;28;20228;-80
2022/11/30 06:56:58;;;;;;;0.00;0.00;;;;;;;;;;5038507;28;20231;-80
2022/11/30 06:59:26;;;;;;;0.00;0.00;;;;;;;;;;5038443;28;20224;-80
2022/11/30 07:01:55;;;;;;;0.00;0.00;;;;;;;;;;5038208;28;20204;-81
2022/11/30 07:04:25;;;;;;;0.00;0.00;;;;;;;;;;5037811;28;20231;-80
2022/11/30 07:06:53;;;;;;;0.10;0.10;;;;;;;;;;5037703;28;20200;-80
2022/11/30 07:09:22;;;;;;;0.00;0.00;;;;;;;;;;5037053;28;20200;-80
2022/11/30 07:11:50;;;;;;;0.00;0.00;;;;;;;;;;5035445;28;20204;-80
2022/11/30 07:14:19;;;;;;;0.00;0.00;;;;;;;;;;5023787;28;20232;-80
2022/11/30 07:16:47;;;;;;;0.00;0.00;;;;;;;;;;5035660;28;20203;-80
2022/11/30 07:19:16;;;;;;;0.00;0.00;;;;;;;;;;5033491;28;20227;-81
2022/11/30 07:21:46;;;;;;;0.00;0.00;;;;;;;;;;5032861;28;20211;-80
2022/11/30 07:27:02;;;;;;;0.00;0.00;;;;;;;;;;5020592;28;20213;-80
2022/11/30 07:29:31;;;;;;;0.03;0.03;;;;;;;;;;5030231;28;20204;-80
2022/11/30 07:31:59;;;;;;;0.00;0.00;;;;;;;;;;5033949;28;20188;-81
2022/11/30 07:34:28;;;;;;;0.00;0.00;;;;;;;;;;5028818;28;20231;-80
2022/11/30 07:36:58;;;;;;;0.00;0.00;;;;;;;;;;5028486;28;20216;-80
2022/11/30 07:39:27;;;;;;;0.00;0.00;;;;;;;;;;5012523;28;20209;-80
2022/11/30 07:41:55;;;;;;;0.00;0.00;;;;;;;;;;5025312;28;20219;-80
2022/11/30 07:44:24;;;;;;;0.00;0.00;;;;;;;;;;5028545;28;20220;-80
2022/11/30 07:46:52;;;;;;;0.00;0.00;;;;;;;;;;5008129;28;20201;-78
2022/11/30 07:49:21;;;;;;;0.00;0.00;;;;;;;;;;5029599;28;20212;-80
2022/11/30 07:51:49;;;;;;;0.00;0.00;;;;;;;;;;5028666;28;20217;-80
2022/11/30 07:54:19;;;;;;;0.00;0.00;;;;;;;;;;5026760;28;20231;-80
2022/11/30 07:56:48;;;;;;;0.00;0.00;;;;;;;;;;5029029;28;20201;-80
2022/11/30 07:59:17;;;;;;;0.00;0.00;;;;;;;;;;5029908;28;20232;-79
2022/11/30 08:01:45;;;;;;;0.00;0.00;;;;;;;;;;5030061;28;20215;-80
2022/11/30 08:04:14;;;;;;;0.00;0.00;;;;;;;;;;5026581;28;20231;-80
2022/11/30 08:06:43;;;;;;;0.00;0.00;;;;;;;;;;5029939;28;20204;-80
2022/11/30 08:09:12;;;;;;;0.00;0.00;;;;;;;;;;5029757;28;20201;-80
2022/11/30 08:11:49;;;;;;;0.00;0.00;;;;;;;;;;5031381;28;20248;-80
2022/11/30 08:14:18;;;;;;;0.00;0.00;;;;;;;;;;5027836;28;20228;-80
2022/11/30 08:16:47;;;;;;;0.00;0.00;;;;;;;;;;5029381;28;20224;-80
2022/11/30 08:19:16;;;;;;;0.00;0.00;;;;;;;;;;5026612;28;20228;-80
2022/11/30 08:21:45;;;;;;;0.00;0.00;;;;;;;;;;5028770;28;20685;-80
2022/11/30 08:24:13;;;;;;;0.00;0.00;;;;;;;;;;5019733;28;20221;-80
2022/11/30 08:26:42;;;;;;;0.00;0.00;;;;;;;;;;5020281;28;20204;-80
2022/11/30 08:29:12;;;;;;;0.00;0.00;;;;;;;;;;5025550;28;20205;-80
2022/11/30 08:31:40;;;;;;;0.00;0.00;;;;;;;;;;5028173;28;20578;-80
2022/11/30 08:34:11;;;;;;;0.00;0.00;;;;;;;;;;5027500;28;20228;-80
2022/11/30 08:36:40;;;;;;;0.00;0.00;;;;;;;;;;5034387;28;20204;-80
2022/11/30 08:39:09;;;;;;;0.00;0.00;;;;;;;;;;5030910;28;20223;-80
2022/11/30 08:41:38;;;;;;;0.00;0.00;;;;;;;;;;5031126;28;20204;-80
2022/11/30 08:44:07;;;;;;;0.00;0.00;;;;;;;;;;5031979;28;20284;-80
2022/11/30 08:46:37;;;;;;;0.00;0.00;;;;;;;;;;5037005;28;20186;-80
2022/11/30 08:49:22;;;;;;;0.00;0.00;;;;;;;;;;5034737;28;20227;-79
2022/11/30 08:52:10;;;;;;;0.00;0.00;;;;;;;;;;5034984;28;20223;-80
2022/11/30 08:54:47;;;;;;;0.00;0.00;;;;;;;;;;5033542;28;20223;-81
2022/11/30 08:57:16;;;;;;;0.00;0.00;;;;;;;;;;5033368;28;20189;-80
2022/11/30 08:59:45;;;;;;;0.00;0.00;;;;;;;;;;5032731;28;20278;-79
2022/11/30 09:02:16;;;;;;;0.00;0.00;;;;;;;;;;5032995;28;20208;-80
2022/11/30 09:04:46;;;;;;;0.00;0.00;;;;;;;;;;5032736;28;20225;-80
2022/11/30 09:07:15;;;;;;;0.00;0.00;;;;;;;;;;5028335;28;20640;-80
2022/11/30 09:09:44;;;;;;;0.00;0.00;;;;;;;;;;5028804;28;20203;-80
2022/11/30 09:12:13;;;;;;;0.00;0.00;;;;;;;;;;5031368;28;20204;-80
2022/11/30 09:14:43;;;;;;;0.00;0.00;;;;;;;;;;5026820;28;20620;-80
2022/11/30 09:17:12;;;;;;;0.00;0.00;;;;;;;;;;5027542;28;20246;-80
2022/11/30 09:19:43;;;;;;;0.00;0.00;;;;;;;;;;5036460;28;20231;-80
2022/11/30 09:22:12;;;;;;;0.00;0.00;;;;;;;;;;5028734;28;20236;-80
2022/11/30 09:24:42;;;;;;;0.00;0.00;;;;;;;;;;5011092;28;20239;-80
2022/11/30 09:27:11;;;;;;;0.00;0.00;;;;;;;;;;5020690;28;20221;-80
2022/11/30 09:29:40;;;;;;;0.00;0.00;;;;;;;;;;5028017;28;20203;-80
2022/11/30 09:32:11;;;;;;;0.00;0.00;;;;;;;;;;5018895;28;20197;-80
2022/11/30 09:34:39;;;;;;;0.00;0.00;;;;;;;;;;5012776;28;20224;-80
2022/11/30 09:37:10;;;;;;;0.00;0.00;;;;;;;;;;5027987;28;20809;-80
2022/11/30 09:39:39;;;;;;;0.10;0.10;;;;;;;;;;5031490;28;20200;-80
2022/11/30 09:42:34;;;;;;;0.00;0.00;;;;;;;;;;5031501;28;20223;-80
2022/11/30 10:02:30;;;;;;;0.00;0.00;;;;;;;;;;5032231;28;20200;-78
2022/11/30 10:05:00;;;;;;;0.00;0.00;;;;;;;;;;5006612;28;20231;-77
2022/11/30 10:07:41;;;;;;;0.00;0.00;;;;;;;;;;4997723;28;20217;-77
2022/11/30 10:10:15;;;;;;;0.00;0.00;;;;;;;;;;4997498;28;20638;-78
2022/11/30 10:13:04;;;;;;;0.00;0.00;;;;;;;;;;4993100;28;20205;-77
2022/11/30 10:15:39;;;;;;;0.00;0.00;;;;;;;;;;5016808;28;20207;-78
2022/11/30 10:18:15;;;;;;;0.00;0.00;;;;;;;;;;5016609;28;20216;-78
2022/11/30 10:20:50;;;;;;;0.00;0.00;;;;;;;;;;5016698;28;20216;-78
2022/11/30 10:23:30;;;;;;;0.00;0.00;;;;;;;;;;5016386;28;20230;-78
2022/11/30 10:26:02;;;;;;;0.00;0.00;;;;;;;;;;5016954;28;20243;-77
2022/11/30 10:28:41;;;;;;;0.00;0.00;;;;;;;;;;5015876;28;20204;-78
2022/11/30 10:31:16;;;;;;;0.00;0.00;;;;;;;;;;4997057;28;20192;-78
2022/11/30 10:33:47;;;;;;;0.00;0.00;;;;;;;;;;5007602;28;20221;-78
2022/11/30 10:36:21;;;;;;;0.00;0.00;;;;;;;;;;5016910;28;20201;-78
2022/11/30 10:38:53;;;;;;;0.00;0.00;;;;;;;;;;5016365;28;20623;-78
2022/11/30 10:41:23;;;;;;;0.00;0.00;;;;;;;;;;5016797;28;20563;-78
2022/11/30 10:43:53;;;;;;;0.00;0.00;;;;;;;;;;5016372;28;20223;-78
2022/11/30 10:46:25;;;;;;;0.00;0.00;;;;;;;;;;5015714;28;20193;-78
2022/11/30 10:48:59;;;;;;;0.00;0.00;;;;;;;;;;5016001;28;20209;-78
2022/11/30 10:51:28;;;;;;;0.00;0.00;;;;;;;;;;5015730;28;20235;-77
2022/11/30 10:53:59;;;;;;;0.00;0.00;;;;;;;;;;5015956;28;20588;-78
2022/11/30 10:56:28;;;;;;;0.00;0.00;;;;;;;;;;5013507;28;20251;-78
2022/11/30 10:58:59;;;;;;;0.00;0.00;;;;;;;;;;5032803;28;20212;-77
2022/11/30 11:01:32;;;;;;;0.00;0.00;;;;;;;;;;4996954;28;20300;-78
2022/11/30 11:04:10;;;;;;;0.00;0.00;;;;;;;;;;5002433;28;20231;-77
2022/11/30 11:06:42;;;;;;;0.00;0.00;;;;;;;;;;4996128;28;20228;-78
2022/11/30 11:09:26;;;;;;;0.00;0.00;;;;;;;;;;5011072;28;20324;-78
2022/11/30 11:11:55;;;;;;;0.00;0.00;;;;;;;;;;5013952;28;20573;-78
2022/11/30 11:14:26;;;;;;;0.00;0.00;;;;;;;;;;5015550;28;20338;-79
2022/11/30 11:17:00;;;;;;;0.00;0.00;;;;;;;;;;5015744;28;20191;-77
2022/11/30 11:19:39;;;;;;;0.00;0.00;;;;;;;;;;5015503;28;20215;-78
2022/11/30 11:22:15;;;;;;;0.00;0.00;;;;;;;;;;5015176;28;20239;-78
2022/11/30 11:24:44;;;;;;;0.00;0.00;;;;;;;;;;5015639;28;20228;-78
2022/11/30 11:27:21;;;;;;;0.00;0.00;;;;;;;;;;5002947;28;20238;-78
2022/11/30 11:29:57;;;;;;;0.00;0.00;;;;;;;;;;5015802;28;20228;-78
2022/11/30 11:32:26;;;;;;;0.00;0.00;;;;;;;;;;5015533;28;20185;-77
2022/11/30 11:34:57;;;;;;;0.00;0.00;;;;;;;;;;5015195;28;20225;-78
2022/11/30 11:37:27;;;;;;;0.00;0.00;;;;;;;;;;5015267;28;20213;-78
2022/11/30 11:40:01;;;;;;;0.00;0.00;;;;;;;;;;5014924;28;20271;-78
2022/11/30 11:42:31;;;;;;;0.00;0.00;;;;;;;;;;5014730;28;20216;-78
2022/11/30 11:45:02;;;;;;;0.00;0.00;;;;;;;;;;5031006;28;20297;-78
2022/11/30 11:47:37;;;;;;;0.00;0.00;;;;;;;;;;5034945;28;20204;-78
2022/11/30 11:50:21;;;;;;;0.00;0.00;;;;;;;;;;5026599;28;20218;-78
2022/11/30 11:53:23;;;;;;;0.00;0.00;;;;;;;;;;5011047;28;20793;-78
2022/11/30 11:55:54;;;;;;;0.00;0.00;;;;;;;;;;5002352;28;20208;-78
2022/11/30 11:58:29;;;;;;;0.00;0.00;;;;;;;;;;5015248;28;20664;-78
2022/11/30 12:00:59;;;;;;;0.00;0.00;;;;;;;;;;5014231;28;20212;-78
2022/11/30 12:03:55;;;;;;;0.00;0.00;;;;;;;;;;5014639;28;20220;-79
2022/11/30 12:06:24;;;;;;;0.00;0.00;;;;;;;;;;4998122;28;20287;-78
2022/11/30 12:08:57;;;;;;;0.00;0.00;;;;;;;;;;5015129;28;20214;-78
2022/11/30 12:11:27;;;;;;;0.00;0.00;;;;;;;;;;5014998;28;20653;-78
2022/11/30 12:13:56;;;;;;;0.00;0.00;;;;;;;;;;5015241;28;20224;-78
2022/11/30 12:16:31;;;;;;;0.00;0.00;;;;;;;;;;5022399;28;20258;-78
2022/11/30 12:19:03;;;;;;;0.00;0.00;;;;;;;;;;5035030;28;20190;-78
2022/11/30 12:21:38;;;;;;;0.00;0.00;;;;;;;;;;5022858;28;20221;-79
2022/11/30 12:24:19;;;;;;;0.00;0.00;;;;;;;;;;5014363;28;20220;-79
2022/11/30 12:26:50;;;;;;;0.00;0.00;;;;;;;;;;5006017;28;20200;-79
2022/11/30 12:29:22;;;;;;;0.00;0.00;;;;;;;;;;5014979;28;20205;-77
2022/11/30 12:31:58;;;;;;;0.00;0.00;;;;;;;;;;5014545;28;20196;-79
2022/11/30 12:34:31;;;;;;;0.00;0.00;;;;;;;;;;5013994;28;20751;-79
2022/11/30 12:37:06;;;;;;;0.00;0.00;;;;;;;;;;5014330;28;20219;-78
2022/11/30 12:39:43;;;;;;;0.00;0.00;;;;;;;;;;5014184;28;20185;-78
2022/11/30 12:59:45;;;;;;;0.00;0.00;;;;;;;;;;5013171;28;20204;-80
2022/11/30 14:16:07;;;;;;;0.00;0.00;;;;;;;;;;4978223;28;20242;-81
